sensor_id;sensor_type;location;lat;lon;timestamp;P1;durP1;ratioP1;P2;durP2;ratioP2
19089;SDS011;9677;50.656;13.064;2022-12-18T00:00:11;14.80;;;13.40;;
19089;SDS011;9677;50.656;13.064;2022-12-18T00:02:40;14.47;;;13.17;;
19089;SDS011;9677;50.656;13.064;2022-12-18T00:05:11;14.83;;;13.63;;
19089;SDS011;9677;50.656;13.064;2022-12-18T00:07:40;13.83;;;12.73;;
19089;SDS011;9677;50.656;13.064;2022-12-18T00:10:08;13.70;;;12.60;;
19089;SDS011;9677;50.656;13.064;2022-12-18T00:12:44;13.57;;;12.47;;
19089;SDS011;9677;50.656;13.064;2022-12-18T00:15:12;13.97;;;12.83;;
19089;SDS011;9677;50.656;13.064;2022-12-18T00:17:41;15.47;;;14.10;;
19089;SDS011;9677;50.656;13.064;2022-12-18T00:20:10;14.17;;;12.90;;
19089;SDS011;9677;50.656;13.064;2022-12-18T00:22:40;14.23;;;13.03;;
19089;SDS011;9677;50.656;13.064;2022-12-18T00:25:08;13.77;;;12.67;;
19089;SDS011;9677;50.656;13.064;2022-12-18T00:27:37;14.17;;;12.97;;
19089;SDS011;9677;50.656;13.064;2022-12-18T00:30:06;14.10;;;12.93;;
19089;SDS011;9677;50.656;13.064;2022-12-18T00:32:36;13.73;;;12.53;;
19089;SDS011;9677;50.656;13.064;2022-12-18T00:35:05;14.27;;;13.07;;
19089;SDS011;9677;50.656;13.064;2022-12-18T00:37:36;14.30;;;13.10;;
19089;SDS011;9677;50.656;13.064;2022-12-18T00:40:05;13.90;;;12.80;;
19089;SDS011;9677;50.656;13.064;2022-12-18T00:42:35;13.60;;;12.50;;
19089;SDS011;9677;50.656;13.064;2022-12-18T00:45:27;13.40;;;12.30;;
19089;SDS011;9677;50.656;13.064;2022-12-18T00:47:58;14.50;;;13.27;;
19089;SDS011;9677;50.656;13.064;2022-12-18T00:50:27;14.20;;;13.00;;
19089;SDS011;9677;50.656;13.064;2022-12-18T00:52:57;14.13;;;12.93;;
19089;SDS011;9677;50.656;13.064;2022-12-18T00:55:25;13.83;;;12.70;;
19089;SDS011;9677;50.656;13.064;2022-12-18T00:57:54;14.00;;;12.90;;
19089;SDS011;9677;50.656;13.064;2022-12-18T01:00:23;14.17;;;12.97;;
19089;SDS011;9677;50.656;13.064;2022-12-18T01:02:51;13.73;;;12.60;;
19089;SDS011;9677;50.656;13.064;2022-12-18T01:05:20;14.20;;;12.90;;
19089;SDS011;9677;50.656;13.064;2022-12-18T01:07:48;15.50;;;14.20;;
19089;SDS011;9677;50.656;13.064;2022-12-18T01:10:20;13.80;;;12.70;;
19089;SDS011;9677;50.656;13.064;2022-12-18T01:12:48;14.07;;;12.97;;
19089;SDS011;9677;50.656;13.064;2022-12-18T01:15:17;14.17;;;12.97;;
19089;SDS011;9677;50.656;13.064;2022-12-18T01:17:47;13.77;;;12.67;;
19089;SDS011;9677;50.656;13.064;2022-12-18T01:20:16;14.47;;;13.27;;
19089;SDS011;9677;50.656;13.064;2022-12-18T01:22:45;13.63;;;12.53;;
19089;SDS011;9677;50.656;13.064;2022-12-18T01:25:13;14.37;;;13.17;;
19089;SDS011;9677;50.656;13.064;2022-12-18T01:27:44;14.20;;;13.03;;
19089;SDS011;9677;50.656;13.064;2022-12-18T01:30:12;14.20;;;13.00;;
19089;SDS011;9677;50.656;13.064;2022-12-18T01:32:41;14.57;;;13.30;;
19089;SDS011;9677;50.656;13.064;2022-12-18T01:35:09;14.13;;;12.93;;
19089;SDS011;9677;50.656;13.064;2022-12-18T01:37:38;13.70;;;12.60;;
19089;SDS011;9677;50.656;13.064;2022-12-18T01:40:07;13.77;;;12.67;;
19089;SDS011;9677;50.656;13.064;2022-12-18T01:42:38;14.07;;;12.97;;
19089;SDS011;9677;50.656;13.064;2022-12-18T01:45:22;14.20;;;13.00;;
19089;SDS011;9677;50.656;13.064;2022-12-18T01:47:56;13.60;;;12.50;;
19089;SDS011;9677;50.656;13.064;2022-12-18T01:50:28;13.10;;;12.10;;
19089;SDS011;9677;50.656;13.064;2022-12-18T01:53:02;13.80;;;12.70;;
19089;SDS011;9677;50.656;13.064;2022-12-18T01:55:35;14.13;;;12.83;;
19089;SDS011;9677;50.656;13.064;2022-12-18T01:58:08;14.40;;;13.20;;
19089;SDS011;9677;50.656;13.064;2022-12-18T02:00:39;13.23;;;12.20;;
19089;SDS011;9677;50.656;13.064;2022-12-18T02:03:08;14.13;;;13.03;;
19089;SDS011;9677;50.656;13.064;2022-12-18T02:05:40;13.90;;;12.80;;
19089;SDS011;9677;50.656;13.064;2022-12-18T02:08:16;14.13;;;12.93;;
19089;SDS011;9677;50.656;13.064;2022-12-18T02:10:53;14.03;;;12.93;;
19089;SDS011;9677;50.656;13.064;2022-12-18T02:13:32;14.03;;;12.90;;
19089;SDS011;9677;50.656;13.064;2022-12-18T02:16:10;14.57;;;13.37;;
19089;SDS011;9677;50.656;13.064;2022-12-18T02:18:51;13.60;;;12.50;;
19089;SDS011;9677;50.656;13.064;2022-12-18T02:21:27;14.10;;;12.90;;
19089;SDS011;9677;50.656;13.064;2022-12-18T02:24:12;13.80;;;12.70;;
19089;SDS011;9677;50.656;13.064;2022-12-18T02:26:56;13.77;;;12.63;;
19089;SDS011;9677;50.656;13.064;2022-12-18T02:29:31;13.67;;;12.60;;
19089;SDS011;9677;50.656;13.064;2022-12-18T02:32:06;14.43;;;13.20;;
19089;SDS011;9677;50.656;13.064;2022-12-18T02:34:39;14.30;;;13.20;;
19089;SDS011;9677;50.656;13.064;2022-12-18T02:37:14;13.40;;;12.40;;
19089;SDS011;9677;50.656;13.064;2022-12-18T02:39:48;13.70;;;12.60;;
19089;SDS011;9677;50.656;13.064;2022-12-18T02:42:19;14.63;;;13.53;;
19089;SDS011;9677;50.656;13.064;2022-12-18T02:44:48;14.07;;;12.87;;
19089;SDS011;9677;50.656;13.064;2022-12-18T02:47:25;14.00;;;12.90;;
19089;SDS011;9677;50.656;13.064;2022-12-18T02:50:00;13.93;;;12.63;;
19089;SDS011;9677;50.656;13.064;2022-12-18T02:52:38;13.60;;;12.50;;
19089;SDS011;9677;50.656;13.064;2022-12-18T02:55:20;14.43;;;13.23;;
19089;SDS011;9677;50.656;13.064;2022-12-18T02:58:06;13.43;;;12.33;;
19089;SDS011;9677;50.656;13.064;2022-12-18T03:00:48;13.60;;;12.50;;
19089;SDS011;9677;50.656;13.064;2022-12-18T03:03:22;13.83;;;12.73;;
19089;SDS011;9677;50.656;13.064;2022-12-18T03:05:57;13.83;;;12.63;;
19089;SDS011;9677;50.656;13.064;2022-12-18T03:08:32;13.90;;;12.80;;
19089;SDS011;9677;50.656;13.064;2022-12-18T03:11:06;13.37;;;12.37;;
19089;SDS011;9677;50.656;13.064;2022-12-18T03:13:40;13.67;;;12.57;;
19089;SDS011;9677;50.656;13.064;2022-12-18T03:16:14;14.07;;;12.97;;
19089;SDS011;9677;50.656;13.064;2022-12-18T03:18:51;13.27;;;12.27;;
19089;SDS011;9677;50.656;13.064;2022-12-18T03:21:26;13.40;;;12.30;;
19089;SDS011;9677;50.656;13.064;2022-12-18T03:24:00;13.53;;;12.40;;
19089;SDS011;9677;50.656;13.064;2022-12-18T03:26:35;13.47;;;12.47;;
19089;SDS011;9677;50.656;13.064;2022-12-18T03:29:09;13.73;;;12.73;;
19089;SDS011;9677;50.656;13.064;2022-12-18T03:31:42;13.83;;;12.67;;
19089;SDS011;9677;50.656;13.064;2022-12-18T03:34:19;13.87;;;12.77;;
19089;SDS011;9677;50.656;13.064;2022-12-18T03:36:52;15.50;;;14.20;;
19089;SDS011;9677;50.656;13.064;2022-12-18T03:39:23;14.23;;;13.13;;
19089;SDS011;9677;50.656;13.064;2022-12-18T03:41:55;14.57;;;13.27;;
19089;SDS011;9677;50.656;13.064;2022-12-18T03:44:38;14.20;;;13.10;;
19089;SDS011;9677;50.656;13.064;2022-12-18T03:47:13;14.03;;;12.93;;
19089;SDS011;9677;50.656;13.064;2022-12-18T03:49:48;13.60;;;12.50;;
19089;SDS011;9677;50.656;13.064;2022-12-18T03:52:30;14.23;;;13.13;;
19089;SDS011;9677;50.656;13.064;2022-12-18T03:55:07;13.60;;;12.60;;
19089;SDS011;9677;50.656;13.064;2022-12-18T03:57:39;13.63;;;12.53;;
19089;SDS011;9677;50.656;13.064;2022-12-18T04:00:12;13.70;;;12.60;;
19089;SDS011;9677;50.656;13.064;2022-12-18T04:03:01;14.37;;;13.17;;
19089;SDS011;9677;50.656;13.064;2022-12-18T04:05:39;13.90;;;12.80;;
19089;SDS011;9677;50.656;13.064;2022-12-18T04:08:11;13.50;;;12.40;;
19089;SDS011;9677;50.656;13.064;2022-12-18T04:10:44;13.80;;;12.70;;
19089;SDS011;9677;50.656;13.064;2022-12-18T04:13:13;14.97;;;13.77;;
19089;SDS011;9677;50.656;13.064;2022-12-18T04:15:51;13.80;;;12.70;;
19089;SDS011;9677;50.656;13.064;2022-12-18T04:18:21;13.93;;;12.83;;
19089;SDS011;9677;50.656;13.064;2022-12-18T04:20:52;13.93;;;12.83;;
19089;SDS011;9677;50.656;13.064;2022-12-18T04:23:21;13.57;;;12.47;;
19089;SDS011;9677;50.656;13.064;2022-12-18T04:25:52;13.80;;;12.70;;
19089;SDS011;9677;50.656;13.064;2022-12-18T04:28:34;13.93;;;12.83;;
19089;SDS011;9677;50.656;13.064;2022-12-18T04:31:04;13.63;;;12.63;;
19089;SDS011;9677;50.656;13.064;2022-12-18T04:33:34;14.00;;;12.90;;
19089;SDS011;9677;50.656;13.064;2022-12-18T04:36:03;13.20;;;12.20;;
19089;SDS011;9677;50.656;13.064;2022-12-18T04:38:33;14.30;;;13.20;;
19089;SDS011;9677;50.656;13.064;2022-12-18T04:41:07;14.00;;;12.90;;
19089;SDS011;9677;50.656;13.064;2022-12-18T04:43:35;14.00;;;12.90;;
19089;SDS011;9677;50.656;13.064;2022-12-18T04:46:07;14.07;;;12.97;;
19089;SDS011;9677;50.656;13.064;2022-12-18T04:48:36;13.80;;;12.70;;
19089;SDS011;9677;50.656;13.064;2022-12-18T04:51:05;13.43;;;12.40;;
19089;SDS011;9677;50.656;13.064;2022-12-18T04:53:34;13.30;;;12.30;;
19089;SDS011;9677;50.656;13.064;2022-12-18T04:56:04;14.07;;;12.97;;
19089;SDS011;9677;50.656;13.064;2022-12-18T04:58:33;13.63;;;12.53;;
19089;SDS011;9677;50.656;13.064;2022-12-18T05:01:03;14.57;;;13.47;;
19089;SDS011;9677;50.656;13.064;2022-12-18T05:03:33;13.30;;;12.30;;
19089;SDS011;9677;50.656;13.064;2022-12-18T05:06:04;13.77;;;12.70;;
19089;SDS011;9677;50.656;13.064;2022-12-18T05:08:34;13.67;;;12.57;;
19089;SDS011;9677;50.656;13.064;2022-12-18T05:11:04;14.70;;;13.57;;
19089;SDS011;9677;50.656;13.064;2022-12-18T05:13:34;14.50;;;13.30;;
19089;SDS011;9677;50.656;13.064;2022-12-18T05:16:05;14.47;;;13.30;;
19089;SDS011;9677;50.656;13.064;2022-12-18T05:18:36;13.97;;;12.87;;
19089;SDS011;9677;50.656;13.064;2022-12-18T05:21:05;14.67;;;13.53;;
19089;SDS011;9677;50.656;13.064;2022-12-18T05:23:34;14.23;;;13.13;;
19089;SDS011;9677;50.656;13.064;2022-12-18T05:26:04;14.20;;;13.00;;
19089;SDS011;9677;50.656;13.064;2022-12-18T05:28:34;14.63;;;13.53;;
19089;SDS011;9677;50.656;13.064;2022-12-18T05:31:04;14.00;;;12.90;;
19089;SDS011;9677;50.656;13.064;2022-12-18T05:33:33;14.53;;;13.43;;
19089;SDS011;9677;50.656;13.064;2022-12-18T05:36:05;15.43;;;14.23;;
19089;SDS011;9677;50.656;13.064;2022-12-18T05:38:36;14.73;;;13.53;;
19089;SDS011;9677;50.656;13.064;2022-12-18T05:41:06;16.40;;;15.00;;
19089;SDS011;9677;50.656;13.064;2022-12-18T05:43:36;16.10;;;14.80;;
19089;SDS011;9677;50.656;13.064;2022-12-18T05:46:08;15.67;;;14.27;;
19089;SDS011;9677;50.656;13.064;2022-12-18T05:48:42;14.90;;;13.60;;
19089;SDS011;9677;50.656;13.064;2022-12-18T05:51:11;15.87;;;14.57;;
19089;SDS011;9677;50.656;13.064;2022-12-18T05:53:42;14.97;;;13.70;;
19089;SDS011;9677;50.656;13.064;2022-12-18T05:56:12;14.60;;;13.40;;
19089;SDS011;9677;50.656;13.064;2022-12-18T05:58:43;14.30;;;13.20;;
19089;SDS011;9677;50.656;13.064;2022-12-18T06:01:12;14.30;;;13.20;;
19089;SDS011;9677;50.656;13.064;2022-12-18T06:03:44;14.70;;;13.50;;
19089;SDS011;9677;50.656;13.064;2022-12-18T06:06:14;15.40;;;14.17;;
19089;SDS011;9677;50.656;13.064;2022-12-18T06:08:43;14.83;;;13.53;;
19089;SDS011;9677;50.656;13.064;2022-12-18T06:11:12;14.77;;;13.57;;
19089;SDS011;9677;50.656;13.064;2022-12-18T06:13:44;15.07;;;13.87;;
19089;SDS011;9677;50.656;13.064;2022-12-18T06:16:13;14.20;;;13.10;;
19089;SDS011;9677;50.656;13.064;2022-12-18T06:18:42;14.50;;;13.30;;
19089;SDS011;9677;50.656;13.064;2022-12-18T06:21:11;14.67;;;13.50;;
19089;SDS011;9677;50.656;13.064;2022-12-18T06:23:40;14.13;;;13.03;;
19089;SDS011;9677;50.656;13.064;2022-12-18T06:26:10;14.50;;;13.30;;
19089;SDS011;9677;50.656;13.064;2022-12-18T06:28:40;13.80;;;12.70;;
19089;SDS011;9677;50.656;13.064;2022-12-18T06:31:09;14.03;;;13.03;;
19089;SDS011;9677;50.656;13.064;2022-12-18T06:33:38;14.90;;;13.70;;
19089;SDS011;9677;50.656;13.064;2022-12-18T06:36:09;13.70;;;12.60;;
19089;SDS011;9677;50.656;13.064;2022-12-18T06:38:40;14.27;;;13.07;;
19089;SDS011;9677;50.656;13.064;2022-12-18T06:41:11;13.97;;;12.87;;
19089;SDS011;9677;50.656;13.064;2022-12-18T06:43:43;13.47;;;12.47;;
19089;SDS011;9677;50.656;13.064;2022-12-18T06:46:12;14.47;;;13.27;;
19089;SDS011;9677;50.656;13.064;2022-12-18T06:48:41;13.57;;;12.57;;
19089;SDS011;9677;50.656;13.064;2022-12-18T06:51:10;13.87;;;12.80;;
19089;SDS011;9677;50.656;13.064;2022-12-18T06:53:40;14.10;;;13.00;;
19089;SDS011;9677;50.656;13.064;2022-12-18T06:56:09;14.17;;;13.07;;
19089;SDS011;9677;50.656;13.064;2022-12-18T06:58:37;13.70;;;12.70;;
19089;SDS011;9677;50.656;13.064;2022-12-18T07:01:07;13.63;;;12.63;;
19089;SDS011;9677;50.656;13.064;2022-12-18T07:03:38;13.80;;;12.70;;
19089;SDS011;9677;50.656;13.064;2022-12-18T07:06:14;14.67;;;13.53;;
19089;SDS011;9677;50.656;13.064;2022-12-18T07:08:45;13.60;;;12.50;;
19089;SDS011;9677;50.656;13.064;2022-12-18T07:11:15;14.43;;;13.33;;
19089;SDS011;9677;50.656;13.064;2022-12-18T07:13:45;14.43;;;13.33;;
19089;SDS011;9677;50.656;13.064;2022-12-18T07:16:15;14.00;;;12.90;;
19089;SDS011;9677;50.656;13.064;2022-12-18T07:18:51;14.47;;;13.37;;
19089;SDS011;9677;50.656;13.064;2022-12-18T07:21:21;14.00;;;12.90;;
19089;SDS011;9677;50.656;13.064;2022-12-18T07:23:51;14.43;;;13.33;;
19089;SDS011;9677;50.656;13.064;2022-12-18T07:26:20;13.53;;;12.53;;
19089;SDS011;9677;50.656;13.064;2022-12-18T07:28:50;13.60;;;12.57;;
19089;SDS011;9677;50.656;13.064;2022-12-18T07:31:22;14.00;;;12.90;;
19089;SDS011;9677;50.656;13.064;2022-12-18T07:33:52;14.40;;;13.30;;
19089;SDS011;9677;50.656;13.064;2022-12-18T07:36:22;14.10;;;13.00;;
19089;SDS011;9677;50.656;13.064;2022-12-18T07:38:51;14.10;;;13.00;;
19089;SDS011;9677;50.656;13.064;2022-12-18T07:41:19;14.23;;;13.13;;
19089;SDS011;9677;50.656;13.064;2022-12-18T07:43:48;13.90;;;12.80;;
19089;SDS011;9677;50.656;13.064;2022-12-18T07:46:17;14.63;;;13.43;;
19089;SDS011;9677;50.656;13.064;2022-12-18T07:48:46;13.90;;;12.80;;
19089;SDS011;9677;50.656;13.064;2022-12-18T07:51:16;13.70;;;12.60;;
19089;SDS011;9677;50.656;13.064;2022-12-18T07:53:48;13.83;;;12.83;;
19089;SDS011;9677;50.656;13.064;2022-12-18T07:57:41;14.73;;;13.63;;
19089;SDS011;9677;50.656;13.064;2022-12-18T08:00:21;14.27;;;13.17;;
19089;SDS011;9677;50.656;13.064;2022-12-18T08:02:50;14.17;;;13.07;;
19089;SDS011;9677;50.656;13.064;2022-12-18T08:05:19;14.47;;;13.37;;
19089;SDS011;9677;50.656;13.064;2022-12-18T08:07:48;14.63;;;13.53;;
19089;SDS011;9677;50.656;13.064;2022-12-18T08:10:18;14.33;;;13.23;;
19089;SDS011;9677;50.656;13.064;2022-12-18T08:12:48;14.47;;;13.37;;
19089;SDS011;9677;50.656;13.064;2022-12-18T08:15:18;13.80;;;12.80;;
19089;SDS011;9677;50.656;13.064;2022-12-18T08:17:46;14.30;;;13.20;;
19089;SDS011;9677;50.656;13.064;2022-12-18T08:20:15;13.50;;;12.50;;
19089;SDS011;9677;50.656;13.064;2022-12-18T08:22:44;14.93;;;13.73;;
19089;SDS011;9677;50.656;13.064;2022-12-18T08:25:13;14.03;;;12.93;;
19089;SDS011;9677;50.656;13.064;2022-12-18T08:27:43;14.07;;;12.97;;
19089;SDS011;9677;50.656;13.064;2022-12-18T08:30:12;14.40;;;13.20;;
19089;SDS011;9677;50.656;13.064;2022-12-18T08:32:41;13.20;;;12.20;;
19089;SDS011;9677;50.656;13.064;2022-12-18T08:35:09;14.43;;;13.33;;
19089;SDS011;9677;50.656;13.064;2022-12-18T08:37:43;14.10;;;13.00;;
19089;SDS011;9677;50.656;13.064;2022-12-18T08:40:11;13.67;;;12.57;;
19089;SDS011;9677;50.656;13.064;2022-12-18T08:42:42;13.63;;;12.63;;
19089;SDS011;9677;50.656;13.064;2022-12-18T08:45:28;13.43;;;12.37;;
19089;SDS011;9677;50.656;13.064;2022-12-18T08:47:59;13.90;;;12.80;;
19089;SDS011;9677;50.656;13.064;2022-12-18T08:50:27;14.37;;;13.27;;
19089;SDS011;9677;50.656;13.064;2022-12-18T08:52:56;13.43;;;12.43;;
19089;SDS011;9677;50.656;13.064;2022-12-18T08:55:24;14.57;;;13.37;;
19089;SDS011;9677;50.656;13.064;2022-12-18T08:57:54;13.53;;;12.50;;
19089;SDS011;9677;50.656;13.064;2022-12-18T09:00:23;13.57;;;12.57;;
19089;SDS011;9677;50.656;13.064;2022-12-18T09:02:52;13.97;;;12.87;;
19089;SDS011;9677;50.656;13.064;2022-12-18T09:05:20;14.00;;;12.90;;
19089;SDS011;9677;50.656;13.064;2022-12-18T09:07:49;13.70;;;12.70;;
19089;SDS011;9677;50.656;13.064;2022-12-18T09:10:17;13.70;;;12.60;;
19089;SDS011;9677;50.656;13.064;2022-12-18T09:12:47;13.70;;;12.70;;
19089;SDS011;9677;50.656;13.064;2022-12-18T09:15:17;13.50;;;12.50;;
19089;SDS011;9677;50.656;13.064;2022-12-18T09:17:47;13.90;;;12.90;;
19089;SDS011;9677;50.656;13.064;2022-12-18T09:20:16;14.43;;;13.33;;
19089;SDS011;9677;50.656;13.064;2022-12-18T09:22:44;13.63;;;12.63;;
19089;SDS011;9677;50.656;13.064;2022-12-18T09:25:13;13.90;;;12.80;;
19089;SDS011;9677;50.656;13.064;2022-12-18T09:27:42;14.27;;;13.17;;
19089;SDS011;9677;50.656;13.064;2022-12-18T09:30:10;13.77;;;12.67;;
19089;SDS011;9677;50.656;13.064;2022-12-18T09:32:41;13.80;;;12.70;;
19089;SDS011;9677;50.656;13.064;2022-12-18T09:35:09;14.43;;;13.33;;
19089;SDS011;9677;50.656;13.064;2022-12-18T09:37:38;14.03;;;12.93;;
19089;SDS011;9677;50.656;13.064;2022-12-18T09:40:12;14.13;;;13.03;;
19089;SDS011;9677;50.656;13.064;2022-12-18T09:42:42;14.77;;;13.67;;
19089;SDS011;9677;50.656;13.064;2022-12-18T09:45:17;13.37;;;12.37;;
19089;SDS011;9677;50.656;13.064;2022-12-18T09:47:47;14.57;;;13.47;;
19089;SDS011;9677;50.656;13.064;2022-12-18T09:50:20;14.47;;;13.27;;
19089;SDS011;9677;50.656;13.064;2022-12-18T09:52:56;14.07;;;12.90;;
19089;SDS011;9677;50.656;13.064;2022-12-18T09:55:33;13.80;;;12.70;;
19089;SDS011;9677;50.656;13.064;2022-12-18T09:58:05;14.47;;;13.37;;
19089;SDS011;9677;50.656;13.064;2022-12-18T10:00:42;14.00;;;12.70;;
19089;SDS011;9677;50.656;13.064;2022-12-18T10:03:13;13.80;;;12.70;;
19089;SDS011;9677;50.656;13.064;2022-12-18T10:05:44;13.33;;;12.23;;
19089;SDS011;9677;50.656;13.064;2022-12-18T10:08:25;14.27;;;13.17;;
19089;SDS011;9677;50.656;13.064;2022-12-18T10:11:12;14.13;;;13.03;;
19089;SDS011;9677;50.656;13.064;2022-12-18T10:13:54;13.50;;;12.40;;
19089;SDS011;9677;50.656;13.064;2022-12-18T10:16:30;13.50;;;12.40;;
19089;SDS011;9677;50.656;13.064;2022-12-18T10:19:16;14.10;;;12.97;;
19089;SDS011;9677;50.656;13.064;2022-12-18T10:21:57;13.53;;;12.43;;
19089;SDS011;9677;50.656;13.064;2022-12-18T10:24:39;14.10;;;13.00;;
19089;SDS011;9677;50.656;13.064;2022-12-18T10:27:15;13.77;;;12.63;;
19089;SDS011;9677;50.656;13.064;2022-12-18T10:29:46;14.37;;;13.23;;
19089;SDS011;9677;50.656;13.064;2022-12-18T10:32:15;13.63;;;12.50;;
19089;SDS011;9677;50.656;13.064;2022-12-18T10:34:48;14.60;;;13.50;;
19089;SDS011;9677;50.656;13.064;2022-12-18T10:37:26;14.10;;;12.90;;
19089;SDS011;9677;50.656;13.064;2022-12-18T10:40:10;14.13;;;13.03;;
19089;SDS011;9677;50.656;13.064;2022-12-18T10:42:50;13.93;;;12.77;;
19089;SDS011;9677;50.656;13.064;2022-12-18T10:45:32;14.30;;;13.00;;
19089;SDS011;9677;50.656;13.064;2022-12-18T10:48:01;14.83;;;13.63;;
19089;SDS011;9677;50.656;13.064;2022-12-18T10:50:33;14.93;;;13.63;;
19089;SDS011;9677;50.656;13.064;2022-12-18T10:53:25;13.67;;;12.57;;
19089;SDS011;9677;50.656;13.064;2022-12-18T10:55:56;13.93;;;12.83;;
19089;SDS011;9677;50.656;13.064;2022-12-18T10:58:27;14.30;;;13.10;;
19089;SDS011;9677;50.656;13.064;2022-12-18T11:01:08;14.40;;;13.10;;
19089;SDS011;9677;50.656;13.064;2022-12-18T11:03:40;23.53;;;21.33;;
19089;SDS011;9677;50.656;13.064;2022-12-18T11:06:13;26.23;;;23.03;;
19089;SDS011;9677;50.656;13.064;2022-12-18T11:08:44;19.80;;;17.70;;
19089;SDS011;9677;50.656;13.064;2022-12-18T11:11:27;18.30;;;16.50;;
19089;SDS011;9677;50.656;13.064;2022-12-18T11:14:00;16.57;;;14.97;;
19089;SDS011;9677;50.656;13.064;2022-12-18T11:16:33;15.47;;;14.07;;
19089;SDS011;9677;50.656;13.064;2022-12-18T11:19:28;16.33;;;14.70;;
19089;SDS011;9677;50.656;13.064;2022-12-18T11:22:03;15.73;;;14.33;;
19089;SDS011;9677;50.656;13.064;2022-12-18T11:24:52;14.20;;;12.93;;
19089;SDS011;9677;50.656;13.064;2022-12-18T11:27:47;14.43;;;13.10;;
19089;SDS011;9677;50.656;13.064;2022-12-18T11:30:21;14.77;;;13.47;;
19089;SDS011;9677;50.656;13.064;2022-12-18T11:32:53;14.60;;;13.30;;
19089;SDS011;9677;50.656;13.064;2022-12-18T11:35:36;13.83;;;12.63;;
19089;SDS011;9677;50.656;13.064;2022-12-18T11:38:12;13.97;;;12.77;;
19089;SDS011;9677;50.656;13.064;2022-12-18T11:40:51;14.40;;;13.10;;
19089;SDS011;9677;50.656;13.064;2022-12-18T11:43:27;13.60;;;12.40;;
19089;SDS011;9677;50.656;13.064;2022-12-18T11:46:01;14.23;;;12.80;;
19089;SDS011;9677;50.656;13.064;2022-12-18T11:48:41;14.40;;;12.90;;
19089;SDS011;9677;50.656;13.064;2022-12-18T11:51:15;14.03;;;12.70;;
19089;SDS011;9677;50.656;13.064;2022-12-18T11:53:55;14.20;;;12.90;;
19089;SDS011;9677;50.656;13.064;2022-12-18T11:56:27;14.07;;;12.77;;
19089;SDS011;9677;50.656;13.064;2022-12-18T11:59:06;14.83;;;13.43;;
19089;SDS011;9677;50.656;13.064;2022-12-18T12:01:47;14.00;;;12.70;;
19089;SDS011;9677;50.656;13.064;2022-12-18T12:04:41;15.63;;;14.13;;
19089;SDS011;9677;50.656;13.064;2022-12-18T12:07:33;14.97;;;13.50;;
19089;SDS011;9677;50.656;13.064;2022-12-18T12:10:18;13.87;;;12.60;;
19089;SDS011;9677;50.656;13.064;2022-12-18T12:13:07;14.70;;;13.30;;
19089;SDS011;9677;50.656;13.064;2022-12-18T12:15:55;14.07;;;12.77;;
19089;SDS011;9677;50.656;13.064;2022-12-18T12:18:37;13.70;;;12.60;;
19089;SDS011;9677;50.656;13.064;2022-12-18T12:21:28;13.60;;;12.40;;
19089;SDS011;9677;50.656;13.064;2022-12-18T12:24:09;14.17;;;12.97;;
19089;SDS011;9677;50.656;13.064;2022-12-18T12:26:54;14.27;;;12.97;;
19089;SDS011;9677;50.656;13.064;2022-12-18T12:29:32;13.87;;;12.63;;
19089;SDS011;9677;50.656;13.064;2022-12-18T12:32:17;13.23;;;12.13;;
19089;SDS011;9677;50.656;13.064;2022-12-18T12:35:05;13.57;;;12.37;;
19089;SDS011;9677;50.656;13.064;2022-12-18T12:37:51;14.27;;;13.07;;
19089;SDS011;9677;50.656;13.064;2022-12-18T12:40:34;13.73;;;12.50;;
19089;SDS011;9677;50.656;13.064;2022-12-18T12:43:24;14.07;;;12.77;;
19089;SDS011;9677;50.656;13.064;2022-12-18T12:46:00;13.60;;;12.40;;
19089;SDS011;9677;50.656;13.064;2022-12-18T12:48:38;13.57;;;12.27;;
19089;SDS011;9677;50.656;13.064;2022-12-18T12:51:13;13.97;;;12.77;;
19089;SDS011;9677;50.656;13.064;2022-12-18T12:53:46;13.57;;;12.37;;
19089;SDS011;9677;50.656;13.064;2022-12-18T12:56:16;14.40;;;13.10;;
19089;SDS011;9677;50.656;13.064;2022-12-18T12:58:52;13.50;;;12.20;;
19089;SDS011;9677;50.656;13.064;2022-12-18T13:01:28;13.70;;;12.50;;
19089;SDS011;9677;50.656;13.064;2022-12-18T13:04:08;14.73;;;13.43;;
19089;SDS011;9677;50.656;13.064;2022-12-18T13:06:50;14.30;;;13.07;;
19089;SDS011;9677;50.656;13.064;2022-12-18T13:09:29;14.50;;;13.20;;
19089;SDS011;9677;50.656;13.064;2022-12-18T13:12:02;14.27;;;13.00;;
19089;SDS011;9677;50.656;13.064;2022-12-18T13:14:52;14.17;;;12.87;;
19089;SDS011;9677;50.656;13.064;2022-12-18T13:17:26;13.50;;;12.30;;
19089;SDS011;9677;50.656;13.064;2022-12-18T13:20:04;13.87;;;12.67;;
19089;SDS011;9677;50.656;13.064;2022-12-18T13:22:38;13.40;;;12.20;;
19089;SDS011;9677;50.656;13.064;2022-12-18T13:25:31;13.50;;;12.30;;
19089;SDS011;9677;50.656;13.064;2022-12-18T13:28:04;13.40;;;12.20;;
19089;SDS011;9677;50.656;13.064;2022-12-18T13:30:47;13.33;;;12.13;;
19089;SDS011;9677;50.656;13.064;2022-12-18T13:36:35;13.60;;;12.40;;
19089;SDS011;9677;50.656;13.064;2022-12-18T13:45:35;13.53;;;12.43;;
19089;SDS011;9677;50.656;13.064;2022-12-18T13:48:18;14.00;;;12.80;;
19089;SDS011;9677;50.656;13.064;2022-12-18T13:50:55;12.93;;;11.83;;
19089;SDS011;9677;50.656;13.064;2022-12-18T13:53:30;15.20;;;13.90;;
19089;SDS011;9677;50.656;13.064;2022-12-18T13:56:07;14.10;;;12.67;;
19089;SDS011;9677;50.656;13.064;2022-12-18T13:58:35;13.63;;;12.43;;
19089;SDS011;9677;50.656;13.064;2022-12-18T14:01:04;13.63;;;12.43;;
19089;SDS011;9677;50.656;13.064;2022-12-18T14:03:39;13.63;;;12.43;;
19089;SDS011;9677;50.656;13.064;2022-12-18T14:06:10;13.40;;;12.20;;
19089;SDS011;9677;50.656;13.064;2022-12-18T14:08:42;13.60;;;12.40;;
19089;SDS011;9677;50.656;13.064;2022-12-18T14:11:17;13.70;;;12.50;;
19089;SDS011;9677;50.656;13.064;2022-12-18T14:13:52;14.53;;;13.13;;
19089;SDS011;9677;50.656;13.064;2022-12-18T14:16:21;13.80;;;12.60;;
19089;SDS011;9677;50.656;13.064;2022-12-18T14:18:52;13.47;;;12.37;;
19089;SDS011;9677;50.656;13.064;2022-12-18T14:21:36;14.00;;;12.60;;
19089;SDS011;9677;50.656;13.064;2022-12-18T14:24:11;14.10;;;12.70;;
19089;SDS011;9677;50.656;13.064;2022-12-18T14:26:46;14.00;;;12.80;;
19089;SDS011;9677;50.656;13.064;2022-12-18T14:29:23;14.07;;;12.87;;
19089;SDS011;9677;50.656;13.064;2022-12-18T14:32:12;13.50;;;12.30;;
19089;SDS011;9677;50.656;13.064;2022-12-18T14:34:46;13.70;;;12.40;;
19089;SDS011;9677;50.656;13.064;2022-12-18T14:37:17;13.80;;;12.60;;
19089;SDS011;9677;50.656;13.064;2022-12-18T14:39:55;14.50;;;13.20;;
19089;SDS011;9677;50.656;13.064;2022-12-18T14:42:32;14.30;;;13.10;;
19089;SDS011;9677;50.656;13.064;2022-12-18T14:48:09;14.70;;;13.40;;
19089;SDS011;9677;50.656;13.064;2022-12-18T14:50:56;14.30;;;12.97;;
19089;SDS011;9677;50.656;13.064;2022-12-18T14:53:31;14.57;;;13.10;;
19089;SDS011;9677;50.656;13.064;2022-12-18T14:56:04;13.60;;;12.40;;
19089;SDS011;9677;50.656;13.064;2022-12-18T14:58:45;13.80;;;12.60;;
19089;SDS011;9677;50.656;13.064;2022-12-18T15:01:20;14.00;;;12.80;;
19089;SDS011;9677;50.656;13.064;2022-12-18T15:03:52;14.00;;;12.70;;
19089;SDS011;9677;50.656;13.064;2022-12-18T15:06:28;14.27;;;12.97;;
19089;SDS011;9677;50.656;13.064;2022-12-18T15:09:00;14.10;;;12.80;;
19089;SDS011;9677;50.656;13.064;2022-12-18T15:11:34;14.60;;;13.20;;